Time;durP1;ratioP1;P1;durP2;ratioP2;P2;SDS_P1;SDS_P2;PMS_P1;PMS_P2;Temp;Humidity;BMP_temperature;BMP_pressure;BME280_temperature;BME280_humidity;BME280_pressure;Samples;Min_cycle;Max_cycle;Signal;HPM_P1;HPM_P2
2023/08/06 00:00:08;;;;;;;0.00;0.00;;;15.00;88.80;;;;;;5017610;28;20061;-68
2023/08/06 00:02:33;;;;;;;0.00;0.00;;;15.00;88.90;;;;;;5017599;28;20054;-68
2023/08/06 00:04:59;;;;;;;0.10;0.10;;;15.00;88.90;;;;;;5017880;28;20036;-68
2023/08/06 00:07:24;;;;;;;0.00;0.00;;;15.00;88.80;;;;;;5014759;28;20038;-67
2023/08/06 00:09:50;;;;;;;0.00;0.00;;;15.00;88.80;;;;;;5016828;28;20054;-68
2023/08/06 00:12:15;;;;;;;0.00;0.00;;;15.00;88.80;;;;;;5016650;28;20052;-68
2023/08/06 00:14:42;;;;;;;0.08;0.08;;;15.00;88.90;;;;;;5018380;28;20046;-68
2023/08/06 00:17:08;;;;;;;0.00;0.00;;;15.00;88.80;;;;;;5019551;28;20067;-68
2023/08/06 00:19:33;;;;;;;0.00;0.00;;;15.00;88.90;;;;;;5018611;28;20164;-68
2023/08/06 00:21:59;;;;;;;0.00;0.00;;;15.00;88.80;;;;;;5021068;28;20069;-68
2023/08/06 00:24:24;;;;;;;0.00;0.00;;;15.10;88.90;;;;;;5018884;28;20053;-68
2023/08/06 00:26:50;;;;;;;0.00;0.00;;;15.10;88.90;;;;;;5018695;28;20060;-68
2023/08/06 00:29:16;;;;;;;0.20;0.20;;;15.10;88.90;;;;;;5019410;28;20076;-69
2023/08/06 00:31:41;;;;;;;0.00;0.00;;;15.10;88.90;;;;;;5018543;28;20042;-69
2023/08/06 00:34:07;;;;;;;0.00;0.00;;;15.10;89.00;;;;;;5018692;28;20053;-68
2023/08/06 00:36:32;;;;;;;0.00;0.00;;;15.10;89.10;;;;;;5018869;28;20100;-68
2023/08/06 00:38:58;;;;;;;0.00;0.00;;;15.10;89.10;;;;;;5018629;28;20049;-69
2023/08/06 00:41:23;;;;;;;0.00;0.00;;;15.10;89.00;;;;;;5019500;28;20053;-68
2023/08/06 00:43:49;;;;;;;0.00;0.00;;;15.10;89.00;;;;;;5018968;28;20037;-68
2023/08/06 00:46:14;;;;;;;0.00;0.00;;;15.10;89.10;;;;;;5018566;28;20120;-68
2023/08/06 00:48:41;;;;;;;0.00;0.00;;;15.10;89.10;;;;;;5019862;28;20501;-68
2023/08/06 00:51:09;;;;;;;0.05;0.05;;;15.10;89.10;;;;;;5018969;28;20117;-69
2023/08/06 00:53:35;;;;;;;0.00;0.00;;;15.10;89.20;;;;;;5017292;28;20060;-69
2023/08/06 00:56:02;;;;;;;0.00;0.00;;;15.20;89.30;;;;;;5016704;28;20486;-67
2023/08/06 00:58:27;;;;;;;0.00;0.00;;;15.10;89.30;;;;;;5019003;28;20050;-68
2023/08/06 01:00:53;;;;;;;0.00;0.00;;;15.20;89.30;;;;;;5018655;28;20122;-68
2023/08/06 01:03:18;;;;;;;0.00;0.00;;;15.10;89.20;;;;;;5019326;28;20049;-68
2023/08/06 01:05:44;;;;;;;0.10;0.10;;;15.10;89.20;;;;;;5019085;28;20037;-68
2023/08/06 01:08:15;;;;;;;0.98;0.95;;;15.10;89.20;;;;;;5018970;28;20129;-68
2023/08/06 01:11:26;;;;;;;1.35;0.80;;;15.10;89.10;;;;;;5019106;28;20037;-69
2023/08/06 01:14:13;;;;;;;0.03;0.03;;;15.10;89.10;;;;;;5014678;28;20379;-67
2023/08/06 01:16:40;;;;;;;0.10;0.10;;;15.10;89.10;;;;;;5017664;28;20790;-68
2023/08/06 01:19:19;;;;;;;0.00;0.00;;;15.10;89.20;;;;;;5019123;28;20048;-68
2023/08/06 01:21:44;;;;;;;0.00;0.00;;;15.10;89.20;;;;;;5018776;28;20037;-67
2023/08/06 01:24:10;;;;;;;0.00;0.00;;;15.10;89.30;;;;;;5018399;28;20050;-68
2023/08/06 01:26:43;;;;;;;0.00;0.00;;;15.00;89.30;;;;;;5016023;28;20061;-68
2023/08/06 01:29:50;;;;;;;0.00;0.00;;;15.10;89.40;;;;;;5017483;28;20045;-67
2023/08/06 01:32:16;;;;;;;0.00;0.00;;;15.10;89.40;;;;;;4989309;28;20053;-67
2023/08/06 01:34:44;;;;;;;0.00;0.00;;;15.10;89.50;;;;;;5016108;28;20037;-68
2023/08/06 01:37:11;;;;;;;0.00;0.00;;;15.10;89.40;;;;;;5017960;28;20046;-67
2023/08/06 01:39:36;;;;;;;0.00;0.00;;;15.10;89.40;;;;;;5017476;28;20449;-68
2023/08/06 01:42:02;;;;;;;0.00;0.00;;;15.10;89.50;;;;;;5018155;28;20045;-67
2023/08/06 01:44:28;;;;;;;0.00;0.00;;;15.10;89.50;;;;;;5019752;28;20406;-67
2023/08/06 01:46:53;;;;;;;0.00;0.00;;;15.00;89.40;;;;;;5017575;28;20518;-68
2023/08/06 01:49:19;;;;;;;0.00;0.00;;;15.00;89.50;;;;;;5018085;28;20033;-68
2023/08/06 01:51:44;;;;;;;0.00;0.00;;;15.00;89.60;;;;;;5018305;28;20133;-68
2023/08/06 01:54:10;;;;;;;0.00;0.00;;;15.00;89.60;;;;;;5017834;28;20121;-67
2023/08/06 01:56:36;;;;;;;0.00;0.00;;;15.00;89.60;;;;;;5017866;28;20056;-67
2023/08/06 01:59:01;;;;;;;0.00;0.00;;;15.00;89.70;;;;;;5017241;28;20128;-68
2023/08/06 02:01:27;;;;;;;0.00;0.00;;;15.00;89.70;;;;;;5017838;28;20041;-68
2023/08/06 02:03:52;;;;;;;0.00;0.00;;;15.00;89.70;;;;;;5017371;28;20033;-68
2023/08/06 02:06:18;;;;;;;0.00;0.00;;;15.00;89.70;;;;;;5017694;28;20579;-68
2023/08/06 02:08:43;;;;;;;0.00;0.00;;;15.00;89.60;;;;;;5015972;28;20510;-67
2023/08/06 02:11:09;;;;;;;0.00;0.00;;;15.00;89.70;;;;;;5017346;28;20103;-67
2023/08/06 02:13:34;;;;;;;0.10;0.10;;;15.00;89.60;;;;;;5016394;28;20685;-68
2023/08/06 02:16:00;;;;;;;0.10;0.10;;;15.00;89.50;;;;;;5017307;28;20064;-68
2023/08/06 02:18:25;;;;;;;0.00;0.00;;;15.00;89.60;;;;;;5017244;28;20096;-67
2023/08/06 02:20:58;;;;;;;0.00;0.00;;;15.00;89.50;;;;;;5017614;28;20041;-68
2023/08/06 02:23:24;;;;;;;0.10;0.10;;;15.00;89.40;;;;;;5017947;28;20132;-69
2023/08/06 02:25:57;;;;;;;0.00;0.00;;;15.00;89.40;;;;;;5017266;28;20077;-68
2023/08/06 02:28:23;;;;;;;0.00;0.00;;;15.00;89.50;;;;;;5017762;28;20057;-68
2023/08/06 02:30:52;;;;;;;0.00;0.00;;;15.00;89.50;;;;;;5016779;28;21233;-68
2023/08/06 02:33:17;;;;;;;0.00;0.00;;;15.00;89.60;;;;;;5016122;28;20044;-68
2023/08/06 02:35:43;;;;;;;0.00;0.00;;;15.00;89.70;;;;;;5017863;28;20108;-68
2023/08/06 02:38:08;;;;;;;0.00;0.00;;;15.00;89.80;;;;;;5017227;28;20033;-67
2023/08/06 02:40:34;;;;;;;0.00;0.00;;;15.00;89.90;;;;;;5016908;28;20042;-68
2023/08/06 02:42:59;;;;;;;0.00;0.00;;;15.00;89.90;;;;;;5015989;28;20064;-68
2023/08/06 02:45:25;;;;;;;0.00;0.00;;;15.10;89.90;;;;;;5017079;28;20049;-68
2023/08/06 02:47:51;;;;;;;0.00;0.00;;;15.00;89.80;;;;;;5017416;28;20037;-68
2023/08/06 02:50:16;;;;;;;0.00;0.00;;;15.00;89.80;;;;;;5016149;28;20100;-68
2023/08/06 02:52:42;;;;;;;0.00;0.00;;;15.10;89.80;;;;;;5015874;28;20092;-67
2023/08/06 02:55:07;;;;;;;0.10;0.10;;;15.00;89.80;;;;;;5014717;28;20050;-67
2023/08/06 02:57:33;;;;;;;0.00;0.00;;;15.00;89.80;;;;;;5017387;28;20141;-67
2023/08/06 02:59:58;;;;;;;0.00;0.00;;;15.10;89.90;;;;;;5021402;28;20056;-68
2023/08/06 03:02:24;;;;;;;0.00;0.00;;;15.10;89.90;;;;;;5020614;28;20120;-68
2023/08/06 03:04:49;;;;;;;0.00;0.00;;;15.10;89.90;;;;;;5020378;28;20033;-67
2023/08/06 03:07:15;;;;;;;0.00;0.00;;;15.10;89.90;;;;;;5021272;28;20054;-68
2023/08/06 03:09:40;;;;;;;0.00;0.00;;;15.10;89.70;;;;;;5019795;28;20034;-68
2023/08/06 03:12:07;;;;;;;0.00;0.00;;;15.10;89.70;;;;;;5020619;28;20495;-68
2023/08/06 03:14:32;;;;;;;0.00;0.00;;;15.10;89.80;;;;;;5019752;28;20037;-68
2023/08/06 03:16:58;;;;;;;0.00;0.00;;;15.10;89.70;;;;;;5019619;28;20173;-68
2023/08/06 03:19:23;;;;;;;0.00;0.00;;;15.10;89.80;;;;;;5020427;28;20076;-68
2023/08/06 03:21:49;;;;;;;0.00;0.00;;;15.10;89.70;;;;;;5020147;28;20038;-68
2023/08/06 03:24:14;;;;;;;0.00;0.00;;;15.10;89.70;;;;;;5019986;28;20124;-68
2023/08/06 03:26:40;;;;;;;0.00;0.00;;;15.10;89.60;;;;;;5019888;28;20040;-68
2023/08/06 03:29:05;;;;;;;0.00;0.00;;;15.10;89.60;;;;;;5021105;28;20409;-68
2023/08/06 03:31:31;;;;;;;0.00;0.00;;;15.10;89.60;;;;;;5019863;28;20490;-69
2023/08/06 03:33:56;;;;;;;0.00;0.00;;;15.10;89.60;;;;;;5018865;28;20856;-68
2023/08/06 03:36:22;;;;;;;0.00;0.00;;;15.10;89.60;;;;;;5019626;28;20498;-68
2023/08/06 03:38:47;;;;;;;0.00;0.00;;;15.10;89.70;;;;;;5017608;28;20403;-68
2023/08/06 03:41:13;;;;;;;0.00;0.00;;;15.10;89.70;;;;;;5017388;28;20126;-67
2023/08/06 03:43:38;;;;;;;0.00;0.00;;;15.10;89.70;;;;;;5018045;28;20095;-68
2023/08/06 03:46:04;;;;;;;0.00;0.00;;;15.10;89.70;;;;;;5019490;28;20053;-68
2023/08/06 03:48:30;;;;;;;0.00;0.00;;;15.10;89.70;;;;;;5020802;28;20050;-68
2023/08/06 03:50:55;;;;;;;0.00;0.00;;;15.10;89.70;;;;;;5019385;28;20053;-68
2023/08/06 03:53:21;;;;;;;0.00;0.00;;;15.10;89.70;;;;;;5019626;28;20041;-68
2023/08/06 03:55:46;;;;;;;0.00;0.00;;;15.10;89.70;;;;;;5020231;28;20403;-68
2023/08/06 03:58:12;;;;;;;0.00;0.00;;;15.10;89.70;;;;;;5019814;28;20510;-67
2023/08/06 04:00:37;;;;;;;0.00;0.00;;;15.00;89.70;;;;;;5017774;28;20057;-68
2023/08/06 04:03:03;;;;;;;0.00;0.00;;;15.00;89.60;;;;;;5019986;28;20046;-68
2023/08/06 04:05:32;;;;;;;0.00;0.00;;;15.00;89.70;;;;;;5021085;28;20049;-68
2023/08/06 04:07:57;;;;;;;0.00;0.00;;;15.00;89.70;;;;;;5019088;28;20052;-68
2023/08/06 04:10:23;;;;;;;0.00;0.00;;;15.00;89.70;;;;;;5017383;28;20045;-68
2023/08/06 04:12:48;;;;;;;0.00;0.00;;;15.00;89.70;;;;;;5018886;28;20162;-68
2023/08/06 04:15:14;;;;;;;0.00;0.00;;;15.00;89.70;;;;;;5019609;28;20056;-68
2023/08/06 04:17:39;;;;;;;0.00;0.00;;;15.00;89.70;;;;;;5017746;28;20052;-68
2023/08/06 04:20:06;;;;;;;0.00;0.00;;;15.00;89.80;;;;;;5018058;28;20081;-68
2023/08/06 04:22:31;;;;;;;0.00;0.00;;;15.00;89.80;;;;;;5019786;28;20085;-67
2023/08/06 04:24:57;;;;;;;0.00;0.00;;;15.00;89.80;;;;;;5019679;28;20045;-68
2023/08/06 04:27:22;;;;;;;0.00;0.00;;;15.00;89.90;;;;;;5018616;28;20041;-68
2023/08/06 04:29:48;;;;;;;0.00;0.00;;;15.00;89.90;;;;;;5019597;28;20038;-67
2023/08/06 04:32:13;;;;;;;0.00;0.00;;;15.00;89.90;;;;;;5019108;28;20037;-68
2023/08/06 04:34:39;;;;;;;0.00;0.00;;;15.00;89.90;;;;;;5018400;28;20125;-68
2023/08/06 04:37:05;;;;;;;0.00;0.00;;;15.00;89.80;;;;;;5019295;28;20049;-68
2023/08/06 04:39:30;;;;;;;0.00;0.00;;;15.00;89.80;;;;;;5016352;28;20046;-68
2023/08/06 04:41:57;;;;;;;0.47;0.47;;;15.00;89.80;;;;;;5019160;28;20107;-68
2023/08/06 04:44:23;;;;;;;0.00;0.00;;;15.00;89.80;;;;;;5017300;28;20043;-67
2023/08/06 04:46:49;;;;;;;0.22;0.22;;;15.00;89.90;;;;;;5017573;28;20049;-68
2023/08/06 04:49:14;;;;;;;0.52;0.30;;;15.00;89.80;;;;;;5016092;28;20038;-69
2023/08/06 04:51:40;;;;;;;0.00;0.00;;;15.00;89.80;;;;;;5015166;28;20080;-68
2023/08/06 04:54:05;;;;;;;0.00;0.00;;;15.00;89.70;;;;;;5019527;28;20045;-67
2023/08/06 04:56:32;;;;;;;0.00;0.00;;;14.90;89.60;;;;;;5017333;28;20475;-69
2023/08/06 04:58:58;;;;;;;0.00;0.00;;;14.90;89.60;;;;;;5019137;28;20053;-69
2023/08/06 05:01:24;;;;;;;0.00;0.00;;;14.90;89.60;;;;;;5018241;28;20034;-69
2023/08/06 05:03:49;;;;;;;0.08;0.08;;;14.90;89.60;;;;;;5015459;28;20098;-69
2023/08/06 05:06:15;;;;;;;0.00;0.00;;;14.90;89.60;;;;;;5017989;28;20042;-69
2023/08/06 05:08:40;;;;;;;0.00;0.00;;;14.90;89.50;;;;;;5017456;28;20552;-70
2023/08/06 05:11:06;;;;;;;0.00;0.00;;;14.90;89.50;;;;;;5018047;28;20604;-69
2023/08/06 05:13:32;;;;;;;0.00;0.00;;;14.90;89.50;;;;;;5016274;28;20050;-69
2023/08/06 05:15:58;;;;;;;0.00;0.00;;;14.90;89.50;;;;;;5017205;28;20089;-70
2023/08/06 05:18:24;;;;;;;0.00;0.00;;;14.90;89.50;;;;;;5018528;28;20430;-70
2023/08/06 05:20:50;;;;;;;0.13;0.13;;;14.90;89.60;;;;;;5017498;28;20061;-69
2023/08/06 05:23:16;;;;;;;0.00;0.00;;;14.90;89.60;;;;;;5016307;28;20045;-69
2023/08/06 05:25:42;;;;;;;0.00;0.00;;;14.90;89.60;;;;;;5017376;28;20087;-69
2023/08/06 05:28:07;;;;;;;0.15;0.15;;;15.00;89.60;;;;;;5017526;28;20076;-69
2023/08/06 05:30:33;;;;;;;0.15;0.15;;;15.00;89.50;;;;;;5018217;28;20053;-68
2023/08/06 05:32:58;;;;;;;0.10;0.10;;;14.90;89.60;;;;;;5017880;28;20069;-68
2023/08/06 05:35:24;;;;;;;0.00;0.00;;;15.00;89.70;;;;;;5016828;28;20443;-69
2023/08/06 05:37:50;;;;;;;0.00;0.00;;;15.00;89.80;;;;;;5017775;28;20069;-68
2023/08/06 05:40:15;;;;;;;0.00;0.00;;;15.00;89.90;;;;;;5017499;28;20053;-69
2023/08/06 05:42:41;;;;;;;0.10;0.10;;;15.00;89.80;;;;;;5018967;28;20073;-69
2023/08/06 05:45:08;;;;;;;0.00;0.00;;;15.10;89.90;;;;;;5016885;28;20076;-70
2023/08/06 05:47:33;;;;;;;0.00;0.00;;;15.10;89.80;;;;;;5015463;28;20068;-71
2023/08/06 05:49:59;;;;;;;0.00;0.00;;;15.20;90.00;;;;;;5015830;28;20046;-70
2023/08/06 05:52:24;;;;;;;0.00;0.00;;;15.10;89.90;;;;;;5018414;28;20491;-70
2023/08/06 05:54:50;;;;;;;0.00;0.00;;;15.20;89.80;;;;;;5019373;28;20135;-70
2023/08/06 05:57:16;;;;;;;0.00;0.00;;;15.20;89.70;;;;;;5017586;28;20050;-70
2023/08/06 05:59:42;;;;;;;0.00;0.00;;;15.20;89.70;;;;;;5016904;28;20049;-70
2023/08/06 06:02:08;;;;;;;0.00;0.00;;;15.30;89.70;;;;;;5017970;28;20046;-70
2023/08/06 06:04:33;;;;;;;0.00;0.00;;;15.30;89.70;;;;;;5017498;28;20096;-70
2023/08/06 06:06:59;;;;;;;0.00;0.00;;;15.30;89.70;;;;;;5017110;28;20049;-71
2023/08/06 06:09:24;;;;;;;0.00;0.00;;;15.30;89.60;;;;;;5017304;28;20038;-70
2023/08/06 06:11:50;;;;;;;0.00;0.00;;;15.30;89.40;;;;;;5018465;28;20151;-70
2023/08/06 06:14:17;;;;;;;0.10;0.10;;;15.30;89.50;;;;;;5017989;28;20157;-70
2023/08/06 06:16:43;;;;;;;0.00;0.00;;;15.30;89.60;;;;;;5016511;28;20080;-71
2023/08/06 06:19:08;;;;;;;0.00;0.00;;;15.30;89.60;;;;;;5014424;28;20081;-69
2023/08/06 06:21:34;;;;;;;0.00;0.00;;;15.40;89.70;;;;;;5015423;28;20049;-69
2023/08/06 06:24:00;;;;;;;0.00;0.00;;;15.50;89.70;;;;;;5016856;28;20533;-70
2023/08/06 06:26:25;;;;;;;0.00;0.00;;;15.50;89.80;;;;;;5015060;28;20111;-70
2023/08/06 06:28:51;;;;;;;0.30;0.30;;;15.60;89.80;;;;;;5008925;28;20053;-69
2023/08/06 06:31:16;;;;;;;0.00;0.00;;;15.60;89.80;;;;;;5012706;28;20533;-69
2023/08/06 06:33:42;;;;;;;0.00;0.00;;;15.70;89.70;;;;;;5012743;28;20145;-69
2023/08/06 06:36:08;;;;;;;0.00;0.00;;;15.70;89.70;;;;;;5012280;28;20141;-69
2023/08/06 06:38:34;;;;;;;0.00;0.00;;;15.80;89.70;;;;;;5014975;28;20053;-69
2023/08/06 06:40:59;;;;;;;0.00;0.00;;;15.90;89.60;;;;;;5013599;28;20038;-67
2023/08/06 06:43:26;;;;;;;4.95;2.28;;;15.90;89.40;;;;;;5012987;28;20061;-69
2023/08/06 06:46:01;;;;;;;0.10;0.10;;;16.00;89.30;;;;;;5013526;28;20045;-69
2023/08/06 06:48:31;;;;;;;0.00;0.00;;;15.90;89.10;;;;;;5012757;28;20061;-69
2023/08/06 06:50:56;;;;;;;0.00;0.00;;;16.00;89.10;;;;;;5015194;28;20073;-68
2023/08/06 06:53:28;;;;;;;0.00;0.00;;;16.00;88.90;;;;;;5012708;28;20073;-69
2023/08/06 06:55:55;;;;;;;0.03;0.03;;;16.00;88.90;;;;;;5014244;28;20037;-69
2023/08/06 06:58:20;;;;;;;0.00;0.00;;;16.00;89.10;;;;;;5012625;28;20056;-69
2023/08/06 07:00:48;;;;;;;0.00;0.00;;;16.10;89.10;;;;;;5015153;28;20041;-68
2023/08/06 07:03:17;;;;;;;0.00;0.00;;;16.10;89.00;;;;;;5010495;28;20081;-69
2023/08/06 07:05:44;;;;;;;0.00;0.00;;;16.10;89.10;;;;;;5014307;28;20049;-69
2023/08/06 07:08:09;;;;;;;0.00;0.00;;;16.20;89.00;;;;;;5011316;28;20761;-69
2023/08/06 07:10:35;;;;;;;0.00;0.00;;;16.30;89.20;;;;;;5013721;28;20041;-69
2023/08/06 07:13:00;;;;;;;0.00;0.00;;;16.40;89.10;;;;;;5011143;28;20402;-69
2023/08/06 07:15:26;;;;;;;0.00;0.00;;;16.40;89.10;;;;;;5014646;28;20625;-70
2023/08/06 07:17:52;;;;;;;0.00;0.00;;;16.40;88.90;;;;;;5016252;28;20058;-70
2023/08/06 07:20:17;;;;;;;0.00;0.00;;;16.50;88.80;;;;;;5015651;28;20093;-70
2023/08/06 07:22:44;;;;;;;0.00;0.00;;;16.50;88.80;;;;;;5015777;28;20607;-70
2023/08/06 07:25:09;;;;;;;0.00;0.00;;;16.50;88.70;;;;;;5016416;28;20054;-69
2023/08/06 07:27:35;;;;;;;0.00;0.00;;;16.60;88.80;;;;;;5015716;28;20045;-69
2023/08/06 07:30:01;;;;;;;0.00;0.00;;;16.70;88.70;;;;;;5016939;28;20056;-69
2023/08/06 07:32:27;;;;;;;0.00;0.00;;;16.80;88.60;;;;;;5015879;28;20050;-69
2023/08/06 07:34:56;;;;;;;0.05;0.05;;;16.70;88.50;;;;;;4998161;28;20068;-69
2023/08/06 07:37:22;;;;;;;0.05;0.05;;;16.80;88.30;;;;;;5013161;28;20128;-69
2023/08/06 07:39:48;;;;;;;0.00;0.00;;;16.80;88.20;;;;;;5014538;28;20053;-70
2023/08/06 07:42:14;;;;;;;2.40;0.52;;;16.90;88.10;;;;;;5014390;28;20499;-69
2023/08/06 07:44:39;;;;;;;0.05;0.05;;;16.90;87.90;;;;;;5018754;28;20101;-68
2023/08/06 07:47:05;;;;;;;0.10;0.10;;;16.90;87.90;;;;;;5018839;28;20053;-68
2023/08/06 07:49:31;;;;;;;0.00;0.00;;;17.00;88.00;;;;;;5019063;28;20080;-69
2023/08/06 07:51:56;;;;;;;0.00;0.00;;;17.10;88.00;;;;;;5020318;28;20069;-70
2023/08/06 07:54:23;;;;;;;0.00;0.00;;;17.10;87.80;;;;;;5019178;28;20045;-70
2023/08/06 07:56:49;;;;;;;0.00;0.00;;;17.30;88.20;;;;;;5020073;28;20677;-66
2023/08/06 07:59:14;;;;;;;0.00;0.00;;;17.50;88.10;;;;;;5019153;28;20049;-66
2023/08/06 08:01:40;;;;;;;0.00;0.00;;;17.50;87.60;;;;;;5017942;28;20407;-66
2023/08/06 08:04:05;;;;;;;0.00;0.00;;;17.60;87.30;;;;;;5017737;28;20486;-65
2023/08/06 08:06:31;;;;;;;0.00;0.00;;;17.60;87.20;;;;;;5016735;28;20595;-65
2023/08/06 08:08:56;;;;;;;0.00;0.00;;;17.70;87.00;;;;;;5016903;28;20065;-65
2023/08/06 08:11:22;;;;;;;0.00;0.00;;;17.70;86.80;;;;;;5015902;28;20045;-66
2023/08/06 08:13:47;;;;;;;0.00;0.00;;;17.70;86.70;;;;;;5018665;28;20100;-65
2023/08/06 08:16:13;;;;;;;0.00;0.00;;;17.70;86.20;;;;;;5018252;28;20095;-65
2023/08/06 08:18:38;;;;;;;0.00;0.00;;;17.70;86.20;;;;;;5015283;28;20124;-65
2023/08/06 08:21:04;;;;;;;0.03;0.03;;;17.70;86.10;;;;;;5019273;28;21189;-65
2023/08/06 08:23:31;;;;;;;0.00;0.00;;;17.80;86.00;;;;;;5017387;28;20049;-65
2023/08/06 08:25:56;;;;;;;0.00;0.00;;;17.80;86.10;;;;;;5018106;28;20050;-65
2023/08/06 08:28:22;;;;;;;0.00;0.00;;;17.90;86.10;;;;;;5015416;28;20072;-66
2023/08/06 08:30:48;;;;;;;0.10;0.10;;;17.90;86.10;;;;;;5017393;28;20125;-66
2023/08/06 08:33:13;;;;;;;0.00;0.00;;;18.00;85.70;;;;;;5016815;28;20042;-65
2023/08/06 08:35:40;;;;;;;0.00;0.00;;;18.00;85.70;;;;;;5019006;28;20042;-66
2023/08/06 08:38:05;;;;;;;0.00;0.00;;;18.00;85.70;;;;;;5017223;28;20461;-66
2023/08/06 08:40:40;;;;;;;0.00;0.00;;;18.00;85.70;;;;;;5015581;28;20033;-66
2023/08/06 08:43:06;;;;;;;0.00;0.00;;;18.10;85.50;;;;;;5015283;28;20107;-66
2023/08/06 08:45:35;;;;;;;0.00;0.00;;;18.10;85.30;;;;;;5015335;28;20060;-65
2023/08/06 08:48:01;;;;;;;0.00;0.00;;;18.20;85.30;;;;;;5016878;28;20402;-66
2023/08/06 08:50:27;;;;;;;0.00;0.00;;;18.30;85.10;;;;;;5016045;28;20049;-66
2023/08/06 08:52:52;;;;;;;0.47;0.47;;;18.30;84.80;;;;;;5014298;28;20499;-66
2023/08/06 08:55:21;;;;;;;0.00;0.00;;;18.30;84.70;;;;;;5015506;28;20037;-65
2023/08/06 08:57:47;;;;;;;0.00;0.00;;;18.40;84.40;;;;;;5015920;28;20046;-66
2023/08/06 09:00:14;;;;;;;0.00;0.00;;;18.40;83.80;;;;;;5012349;28;20532;-65
2023/08/06 09:02:41;;;;;;;0.00;0.00;;;18.40;83.30;;;;;;5017361;28;20053;-66
2023/08/06 09:05:08;;;;;;;0.00;0.00;;;18.50;83.30;;;;;;5018208;28;20045;-66
2023/08/06 09:07:48;;;;;;;0.00;0.00;;;18.50;83.30;;;;;;5017872;28;20053;-66
2023/08/06 09:10:17;;;;;;;0.00;0.00;;;18.50;83.70;;;;;;5016684;28;20058;-65
2023/08/06 09:12:44;;;;;;;0.00;0.00;;;18.50;82.30;;;;;;5015900;28;20075;-65
2023/08/06 09:15:10;;;;;;;0.00;0.00;;;18.50;82.60;;;;;;5016988;28;20501;-66
2023/08/06 09:17:36;;;;;;;0.00;0.00;;;18.50;81.90;;;;;;5007789;28;20053;-64
2023/08/06 09:20:10;;;;;;;0.00;0.00;;;18.50;82.30;;;;;;5007785;28;20456;-65
2023/08/06 09:22:36;;;;;;;0.00;0.00;;;18.50;82.50;;;;;;4991246;28;20101;-66
2023/08/06 09:25:03;;;;;;;0.00;0.00;;;18.60;82.00;;;;;;4990921;28;20433;-66
2023/08/06 09:27:29;;;;;;;0.00;0.00;;;18.50;81.40;;;;;;4990779;28;20128;-66
2023/08/06 09:29:54;;;;;;;0.47;0.47;;;18.60;81.60;;;;;;4990742;28;20129;-66
2023/08/06 09:32:20;;;;;;;0.20;0.20;;;18.60;81.80;;;;;;4991339;28;20418;-66
2023/08/06 09:34:46;;;;;;;0.00;0.00;;;18.60;81.20;;;;;;5010427;28;20038;-66
2023/08/06 09:37:11;;;;;;;0.00;0.00;;;18.60;81.40;;;;;;5009605;28;20045;-65
2023/08/06 09:39:40;;;;;;;0.05;0.05;;;18.70;81.00;;;;;;5010270;28;20077;-65
2023/08/06 09:42:06;;;;;;;0.00;0.00;;;18.80;80.90;;;;;;4996827;28;20037;-66
2023/08/06 09:44:32;;;;;;;0.00;0.00;;;18.80;80.30;;;;;;4999604;28;20462;-66
2023/08/06 09:47:00;;;;;;;0.10;0.10;;;18.90;80.40;;;;;;5010394;28;20046;-67
2023/08/06 09:49:33;;;;;;;0.00;0.00;;;19.00;80.30;;;;;;4994271;28;20455;-66
2023/08/06 09:51:59;;;;;;;0.00;0.00;;;19.00;79.90;;;;;;4989535;28;20463;-66
2023/08/06 09:54:26;;;;;;;0.00;0.00;;;19.10;79.70;;;;;;4990164;28;20046;-66
2023/08/06 09:56:55;;;;;;;0.20;0.20;;;19.10;79.10;;;;;;4990192;28;20691;-66
2023/08/06 09:59:22;;;;;;;0.00;0.00;;;19.10;78.70;;;;;;4989484;28;20418;-66
2023/08/06 10:01:48;;;;;;;0.00;0.00;;;19.10;78.60;;;;;;5007574;28;20049;-67
2023/08/06 10:04:18;;;;;;;0.00;0.00;;;19.10;78.60;;;;;;5009597;28;20491;-66
2023/08/06 10:06:47;;;;;;;0.00;0.00;;;19.20;78.10;;;;;;5022758;28;20045;-66
2023/08/06 10:09:14;;;;;;;0.00;0.00;;;19.20;77.70;;;;;;5009792;28;20107;-66
2023/08/06 10:11:40;;;;;;;0.00;0.00;;;19.10;77.60;;;;;;5009756;28;20042;-66
2023/08/06 10:14:12;;;;;;;0.00;0.00;;;19.10;77.50;;;;;;5001386;28;20057;-66
2023/08/06 10:16:39;;;;;;;0.00;0.00;;;19.20;76.80;;;;;;4994392;28;20064;-67
2023/08/06 10:19:07;;;;;;;0.00;0.00;;;19.20;77.20;;;;;;4997344;28;20704;-70
2023/08/06 10:21:32;;;;;;;0.00;0.00;;;19.30;76.60;;;;;;4992245;28;20852;-67
2023/08/06 10:23:58;;;;;;;0.00;0.00;;;19.40;77.50;;;;;;4991535;28;20046;-76
2023/08/06 10:26:27;;;;;;;3.08;0.45;;;19.50;77.20;;;;;;4996944;28;20054;-67
2023/08/06 10:28:53;;;;;;;0.00;0.00;;;19.60;76.50;;;;;;4998953;28;20558;-67
2023/08/06 10:31:19;;;;;;;0.00;0.00;;;19.80;76.70;;;;;;4990586;28;20142;-67
2023/08/06 10:33:46;;;;;;;0.00;0.00;;;20.00;76.20;;;;;;4991600;28;20042;-67
2023/08/06 10:36:12;;;;;;;0.00;0.00;;;20.10;75.60;;;;;;4990109;28;20734;-66
2023/08/06 10:38:48;;;;;;;0.00;0.00;;;20.20;74.70;;;;;;4990389;28;20411;-67
2023/08/06 10:41:29;;;;;;;0.00;0.00;;;20.40;75.00;;;;;;4990179;28;20050;-67
2023/08/06 10:44:08;;;;;;;0.00;0.00;;;20.50;75.10;;;;;;4991883;28;20766;-67
2023/08/06 10:46:34;;;;;;;0.00;0.00;;;20.40;75.20;;;;;;5004469;28;20080;-67
2023/08/06 10:48:59;;;;;;;0.05;0.05;;;20.30;75.20;;;;;;4995829;28;20050;-66
2023/08/06 10:51:25;;;;;;;0.00;0.00;;;20.20;75.30;;;;;;5000802;28;20034;-67
2023/08/06 10:53:51;;;;;;;0.28;0.28;;;20.10;75.50;;;;;;4995639;28;20125;-67
2023/08/06 10:56:18;;;;;;;0.00;0.00;;;20.00;75.70;;;;;;5000827;28;20041;-65
2023/08/06 10:58:47;;;;;;;1.55;0.38;;;19.90;75.70;;;;;;4994706;28;20088;-68
2023/08/06 11:01:13;;;;;;;0.10;0.10;;;19.80;75.70;;;;;;4997224;28;20030;-68
2023/08/06 11:03:39;;;;;;;0.00;0.00;;;19.70;76.00;;;;;;5007132;28;20045;-68
2023/08/06 11:06:07;;;;;;;0.00;0.00;;;19.60;76.20;;;;;;5007750;28;20038;-68
2023/08/06 11:08:38;;;;;;;0.10;0.10;;;19.60;76.10;;;;;;5004653;28;20096;-69
2023/08/06 11:11:11;;;;;;;;;;;19.60;76.50;;;;;;4990695;28;20522;-69
2023/08/06 11:13:38;;;;;;;0.00;0.00;;;19.60;76.80;;;;;;4992078;28;20013;-69
2023/08/06 11:16:05;;;;;;;0.00;0.00;;;19.50;76.90;;;;;;5003913;28;20073;-69
2023/08/06 11:18:31;;;;;;;0.00;0.00;;;19.50;76.80;;;;;;5006179;28;20042;-69
2023/08/06 11:20:59;;;;;;;0.00;0.00;;;19.60;76.80;;;;;;4994333;28;20129;-69
2023/08/06 11:23:27;;;;;;;0.00;0.00;;;19.60;76.60;;;;;;4995351;28;20579;-69
2023/08/06 11:25:53;;;;;;;0.00;0.00;;;19.60;76.40;;;;;;5003635;28;20084;-69
2023/08/06 11:28:21;;;;;;;0.00;0.00;;;19.50;76.60;;;;;;4993970;28;20159;-71
2023/08/06 11:30:47;;;;;;;0.08;0.08;;;19.60;76.80;;;;;;4993575;28;20042;-71
2023/08/06 11:33:13;;;;;;;0.00;0.00;;;19.60;76.50;;;;;;5002644;28;20046;-68
2023/08/06 11:35:39;;;;;;;0.00;0.00;;;19.60;76.60;;;;;;5008601;28;20056;-70
2023/08/06 11:38:05;;;;;;;0.38;0.38;;;19.70;76.70;;;;;;5007378;28;20229;-70
2023/08/06 11:40:32;;;;;;;2.30;0.38;;;19.70;76.70;;;;;;4992914;28;20168;-70
2023/08/06 11:42:58;;;;;;;0.00;0.00;;;19.70;76.50;;;;;;4975447;28;20038;-69
2023/08/06 11:45:26;;;;;;;0.00;0.00;;;19.70;76.20;;;;;;4992459;28;20781;-70
2023/08/06 11:47:53;;;;;;;0.52;0.10;;;19.70;76.20;;;;;;4996324;28;20029;-69
2023/08/06 11:50:25;;;;;;;0.00;0.00;;;19.70;76.10;;;;;;5012266;28;20511;-69
2023/08/06 11:53:00;;;;;;;0.00;0.00;;;19.70;76.50;;;;;;5012175;28;20049;-69
2023/08/06 11:55:26;;;;;;;0.13;0.13;;;19.80;76.70;;;;;;4992901;28;20043;-69
2023/08/06 11:57:52;;;;;;;0.00;0.00;;;19.90;76.40;;;;;;4992674;28;20045;-70
2023/08/06 12:00:19;;;;;;;0.00;0.00;;;20.00;76.00;;;;;;4992974;28;20046;-69
2023/08/06 12:02:46;;;;;;;0.40;0.40;;;20.10;75.60;;;;;;4992317;28;20042;-68
2023/08/06 12:05:15;;;;;;;0.00;0.00;;;20.20;76.00;;;;;;4992939;28;20108;-68
2023/08/06 12:07:45;;;;;;;0.25;0.25;;;20.20;75.70;;;;;;4992399;28;20100;-68
2023/08/06 12:10:13;;;;;;;0.10;0.10;;;20.30;75.70;;;;;;4992480;28;20046;-69
2023/08/06 12:12:39;;;;;;;0.00;0.00;;;20.50;75.50;;;;;;4992788;28;20081;-69
2023/08/06 12:15:08;;;;;;;0.10;0.10;;;20.60;74.90;;;;;;5006928;28;20495;-68
2023/08/06 12:17:35;;;;;;;0.00;0.00;;;20.70;74.40;;;;;;4994022;28;20058;-69
2023/08/06 12:20:00;;;;;;;0.57;0.45;;;20.90;74.00;;;;;;4994626;28;20057;-68
2023/08/06 12:22:26;;;;;;;0.00;0.00;;;20.90;73.60;;;;;;4992216;28;20042;-67
2023/08/06 12:24:52;;;;;;;0.30;0.30;;;20.80;73.60;;;;;;4999466;28;20074;-67
2023/08/06 12:27:17;;;;;;;0.00;0.00;;;20.70;73.50;;;;;;4992137;28;20057;-67
2023/08/06 12:29:44;;;;;;;0.00;0.00;;;20.60;72.80;;;;;;4984956;28;20080;-67
2023/08/06 12:32:11;;;;;;;0.00;0.00;;;20.50;72.90;;;;;;5011268;28;20038;-67
2023/08/06 12:34:39;;;;;;;0.00;0.00;;;20.30;72.90;;;;;;5000586;28;20051;-67
2023/08/06 12:37:04;;;;;;;0.00;0.00;;;20.20;72.50;;;;;;5010585;28;20681;-68
2023/08/06 12:39:31;;;;;;;0.00;0.00;;;20.20;72.70;;;;;;5010841;28;20124;-67
2023/08/06 12:41:57;;;;;;;0.00;0.00;;;20.10;72.90;;;;;;5011363;28;20798;-67
2023/08/06 12:44:24;;;;;;;0.05;0.05;;;20.00;73.60;;;;;;5001947;28;20049;-67